sensor_id;sensor_type;location;lat;lon;timestamp;temperature;humidity
70830;SHT30;58451;51.550;7.208;2022-09-23T00:01:16;8.16;74.87
70830;SHT30;58451;51.550;7.208;2022-09-23T00:03:44;8.15;74.89
70830;SHT30;58451;51.550;7.208;2022-09-23T00:06:18;8.15;74.89
70830;SHT30;58451;51.550;7.208;2022-09-23T00:08:49;8.15;75.00
70830;SHT30;58451;51.550;7.208;2022-09-23T00:11:19;8.15;75.00
70830;SHT30;58451;51.550;7.208;2022-09-23T00:13:51;8.15;75.01
70830;SHT30;58451;51.550;7.208;2022-09-23T00:16:26;8.14;75.06
70830;SHT30;58451;51.550;7.208;2022-09-23T00:19:00;8.13;75.09
70830;SHT30;58451;51.550;7.208;2022-09-23T00:21:28;8.15;75.99
70830;SHT30;58451;51.550;7.208;2022-09-23T00:23:55;8.16;75.92
70830;SHT30;58451;51.550;7.208;2022-09-23T00:26:23;8.16;75.58
70830;SHT30;58451;51.550;7.208;2022-09-23T00:28:51;8.16;75.52
70830;SHT30;58451;51.550;7.208;2022-09-23T00:31:22;8.18;75.54
70830;SHT30;58451;51.550;7.208;2022-09-23T00:33:55;8.19;75.58
70830;SHT30;58451;51.550;7.208;2022-09-23T00:36:26;8.20;75.57
70830;SHT30;58451;51.550;7.208;2022-09-23T00:38:55;8.21;75.56
70830;SHT30;58451;51.550;7.208;2022-09-23T00:41:25;8.22;75.62
70830;SHT30;58451;51.550;7.208;2022-09-23T00:43:56;8.24;75.67
70830;SHT30;58451;51.550;7.208;2022-09-23T00:49:28;8.24;75.72
70830;SHT30;58451;51.550;7.208;2022-09-23T00:51:57;8.27;75.90
70830;SHT30;58451;51.550;7.208;2022-09-23T00:54:38;8.26;75.77
70830;SHT30;58451;51.550;7.208;2022-09-23T00:57:07;8.25;75.74
70830;SHT30;58451;51.550;7.208;2022-09-23T00:59:37;8.26;77.04
70830;SHT30;58451;51.550;7.208;2022-09-23T01:02:06;8.26;76.76
70830;SHT30;58451;51.550;7.208;2022-09-23T01:04:35;8.26;76.39
70830;SHT30;58451;51.550;7.208;2022-09-23T01:07:02;8.26;76.27
70830;SHT30;58451;51.550;7.208;2022-09-23T01:09:29;8.25;76.41
70830;SHT30;58451;51.550;7.208;2022-09-23T01:29:42;8.22;79.21
70830;SHT30;58451;51.550;7.208;2022-09-23T01:33:00;8.19;78.12
70830;SHT30;58451;51.550;7.208;2022-09-23T01:38:42;8.14;77.15
70830;SHT30;58451;51.550;7.208;2022-09-23T01:44:19;8.11;76.88
70830;SHT30;58451;51.550;7.208;2022-09-23T01:47:07;8.10;77.83
70830;SHT30;58451;51.550;7.208;2022-09-23T01:52:37;8.09;77.60
70830;SHT30;58451;51.550;7.208;2022-09-23T01:55:15;8.09;77.37
70830;SHT30;58451;51.550;7.208;2022-09-23T01:58:20;8.08;77.24
70830;SHT30;58451;51.550;7.208;2022-09-23T02:01:00;8.08;78.17
70830;SHT30;58451;51.550;7.208;2022-09-23T02:03:34;8.08;78.01
70830;SHT30;58451;51.550;7.208;2022-09-23T02:09:24;8.07;77.62
70830;SHT30;58451;51.550;7.208;2022-09-23T02:12:06;8.07;77.54
70830;SHT30;58451;51.550;7.208;2022-09-23T02:14:46;8.07;77.44
70830;SHT30;58451;51.550;7.208;2022-09-23T02:17:29;8.06;77.38
70830;SHT30;58451;51.550;7.208;2022-09-23T02:20:21;8.05;77.53
70830;SHT30;58451;51.550;7.208;2022-09-23T02:22:56;8.06;77.60
70830;SHT30;58451;51.550;7.208;2022-09-23T02:25:40;8.04;77.50
70830;SHT30;58451;51.550;7.208;2022-09-23T02:28:36;8.04;77.50
70830;SHT30;58451;51.550;7.208;2022-09-23T02:31:44;8.03;77.59
70830;SHT30;58451;51.550;7.208;2022-09-23T02:46:21;7.93;78.00
70830;SHT30;58451;51.550;7.208;2022-09-23T02:49:21;7.92;77.83
70830;SHT30;58451;51.550;7.208;2022-09-23T02:51:52;7.89;77.77
70830;SHT30;58451;51.550;7.208;2022-09-23T02:54:22;7.89;77.73
70830;SHT30;58451;51.550;7.208;2022-09-23T02:56:52;7.89;77.77
70830;SHT30;58451;51.550;7.208;2022-09-23T02:59:22;7.88;78.06
70830;SHT30;58451;51.550;7.208;2022-09-23T03:02:01;7.88;78.48
70830;SHT30;58451;51.550;7.208;2022-09-23T03:07:55;7.88;78.16
70830;SHT30;58451;51.550;7.208;2022-09-23T03:11:11;7.86;78.27
70830;SHT30;58451;51.550;7.208;2022-09-23T03:16:51;7.86;78.30
70830;SHT30;58451;51.550;7.208;2022-09-23T03:19:41;7.85;78.18
70830;SHT30;58451;51.550;7.208;2022-09-23T03:22:34;7.85;78.17
70830;SHT30;58451;51.550;7.208;2022-09-23T03:25:20;7.84;78.16
70830;SHT30;58451;51.550;7.208;2022-09-23T03:27:53;7.84;78.13
70830;SHT30;58451;51.550;7.208;2022-09-23T03:30:24;7.82;78.12
70830;SHT30;58451;51.550;7.208;2022-09-23T03:32:53;7.80;78.09
70830;SHT30;58451;51.550;7.208;2022-09-23T03:35:26;7.79;78.11
70830;SHT30;58451;51.550;7.208;2022-09-23T03:40:41;7.75;78.13
70830;SHT30;58451;51.550;7.208;2022-09-23T03:43:16;7.72;78.11
70830;SHT30;58451;51.550;7.208;2022-09-23T03:45:44;7.70;78.16
70830;SHT30;58451;51.550;7.208;2022-09-23T03:48:12;7.69;78.17
70830;SHT30;58451;51.550;7.208;2022-09-23T03:50:41;7.66;78.20
70830;SHT30;58451;51.550;7.208;2022-09-23T03:53:10;7.63;78.21
70830;SHT30;58451;51.550;7.208;2022-09-23T03:55:39;7.61;78.20
70830;SHT30;58451;51.550;7.208;2022-09-23T03:58:07;7.59;78.23
70830;SHT30;58451;51.550;7.208;2022-09-23T04:00:37;7.57;78.75
70830;SHT30;58451;51.550;7.208;2022-09-23T04:03:04;7.56;79.69
70830;SHT30;58451;51.550;7.208;2022-09-23T04:05:37;7.54;79.17
70830;SHT30;58451;51.550;7.208;2022-09-23T04:08:04;7.52;78.91
70830;SHT30;58451;51.550;7.208;2022-09-23T04:10:31;7.48;78.80
70830;SHT30;58451;51.550;7.208;2022-09-23T04:12:58;7.46;78.72
70830;SHT30;58451;51.550;7.208;2022-09-23T04:15:25;7.45;78.69
70830;SHT30;58451;51.550;7.208;2022-09-23T04:17:51;7.42;78.71
70830;SHT30;58451;51.550;7.208;2022-09-23T04:20:23;7.41;78.74
70830;SHT30;58451;51.550;7.208;2022-09-23T04:22:55;7.39;78.74
70830;SHT30;58451;51.550;7.208;2022-09-23T04:25:22;7.38;78.76
70830;SHT30;58451;51.550;7.208;2022-09-23T04:27:50;7.36;78.78
70830;SHT30;58451;51.550;7.208;2022-09-23T04:30:17;7.34;78.79
70830;SHT30;58451;51.550;7.208;2022-09-23T04:32:44;7.33;78.79
70830;SHT30;58451;51.550;7.208;2022-09-23T04:35:13;7.32;78.79
70830;SHT30;58451;51.550;7.208;2022-09-23T04:37:40;7.30;78.80
70830;SHT30;58451;51.550;7.208;2022-09-23T04:40:07;7.28;78.87
70830;SHT30;58451;51.550;7.208;2022-09-23T04:42:35;7.27;78.96
70830;SHT30;58451;51.550;7.208;2022-09-23T04:45:02;7.24;78.98
70830;SHT30;58451;51.550;7.208;2022-09-23T04:47:31;7.23;78.97
70830;SHT30;58451;51.550;7.208;2022-09-23T04:49:58;7.22;78.98
70830;SHT30;58451;51.550;7.208;2022-09-23T04:52:29;7.21;79.35
70830;SHT30;58451;51.550;7.208;2022-09-23T04:54:56;7.21;79.43
70830;SHT30;58451;51.550;7.208;2022-09-23T04:57:24;7.19;79.32
70830;SHT30;58451;51.550;7.208;2022-09-23T04:59:52;7.18;79.34
70830;SHT30;58451;51.550;7.208;2022-09-23T05:02:23;7.18;79.31
70830;SHT30;58451;51.550;7.208;2022-09-23T05:04:54;7.18;81.31
70830;SHT30;58451;51.550;7.208;2022-09-23T05:07:21;7.16;81.99
70830;SHT30;58451;51.550;7.208;2022-09-23T05:09:48;7.16;81.11
70830;SHT30;58451;51.550;7.208;2022-09-23T05:12:17;7.16;80.56
70830;SHT30;58451;51.550;7.208;2022-09-23T05:14:47;7.13;80.28
70830;SHT30;58451;51.550;7.208;2022-09-23T05:17:14;7.14;80.13
70830;SHT30;58451;51.550;7.208;2022-09-23T05:19:41;7.13;80.02
70830;SHT30;58451;51.550;7.208;2022-09-23T05:22:08;7.11;79.95
70830;SHT30;58451;51.550;7.208;2022-09-23T05:24:35;7.12;79.93
70830;SHT30;58451;51.550;7.208;2022-09-23T05:27:03;7.12;80.39
70830;SHT30;58451;51.550;7.208;2022-09-23T05:29:33;7.14;80.42
70830;SHT30;58451;51.550;7.208;2022-09-23T05:32:01;7.16;80.43
70830;SHT30;58451;51.550;7.208;2022-09-23T05:34:29;7.18;80.28
70830;SHT30;58451;51.550;7.208;2022-09-23T05:36:58;7.20;80.17
70830;SHT30;58451;51.550;7.208;2022-09-23T05:39:27;7.22;80.12
70830;SHT30;58451;51.550;7.208;2022-09-23T05:41:59;7.24;80.24
70830;SHT30;58451;51.550;7.208;2022-09-23T05:44:26;7.28;80.15
70830;SHT30;58451;51.550;7.208;2022-09-23T05:46:53;7.30;80.06
70830;SHT30;58451;51.550;7.208;2022-09-23T05:49:20;7.33;80.02
70830;SHT30;58451;51.550;7.208;2022-09-23T05:52:07;7.36;79.98
70830;SHT30;58451;51.550;7.208;2022-09-23T05:54:34;7.41;79.87
70830;SHT30;58451;51.550;7.208;2022-09-23T05:57:01;7.45;79.85
70830;SHT30;58451;51.550;7.208;2022-09-23T05:59:31;7.51;79.81
70830;SHT30;58451;51.550;7.208;2022-09-23T06:01:58;7.59;79.79
70830;SHT30;58451;51.550;7.208;2022-09-23T06:04:26;7.67;79.76
70830;SHT30;58451;51.550;7.208;2022-09-23T06:06:54;7.75;79.75
70830;SHT30;58451;51.550;7.208;2022-09-23T06:09:28;7.84;79.68
70830;SHT30;58451;51.550;7.208;2022-09-23T06:12:01;7.93;79.67
70830;SHT30;58451;51.550;7.208;2022-09-23T06:14:30;8.00;79.63
70830;SHT30;58451;51.550;7.208;2022-09-23T06:16:57;8.10;79.60
70830;SHT30;58451;51.550;7.208;2022-09-23T06:19:24;8.20;79.57
70830;SHT30;58451;51.550;7.208;2022-09-23T06:21:51;8.29;79.54
70830;SHT30;58451;51.550;7.208;2022-09-23T06:24:18;8.39;79.49
70830;SHT30;58451;51.550;7.208;2022-09-23T06:26:50;8.51;79.41
70830;SHT30;58451;51.550;7.208;2022-09-23T06:29:17;8.65;79.39
70830;SHT30;58451;51.550;7.208;2022-09-23T06:31:44;8.80;79.29
70830;SHT30;58451;51.550;7.208;2022-09-23T06:34:11;9.00;79.23
70830;SHT30;58451;51.550;7.208;2022-09-23T06:36:41;9.18;79.13
70830;SHT30;58451;51.550;7.208;2022-09-23T06:39:15;9.37;79.05
70830;SHT30;58451;51.550;7.208;2022-09-23T06:41:43;9.58;78.99
70830;SHT30;58451;51.550;7.208;2022-09-23T06:44:14;9.80;78.85
70830;SHT30;58451;51.550;7.208;2022-09-23T06:46:41;10.03;78.69
70830;SHT30;58451;51.550;7.208;2022-09-23T06:49:09;10.29;78.56
70830;SHT30;58451;51.550;7.208;2022-09-23T06:51:37;10.55;78.41
70830;SHT30;58451;51.550;7.208;2022-09-23T06:54:05;10.80;78.21
70830;SHT30;58451;51.550;7.208;2022-09-23T06:56:33;11.07;78.01
70830;SHT30;58451;51.550;7.208;2022-09-23T06:59:04;11.35;77.78
70830;SHT30;58451;51.550;7.208;2022-09-23T07:01:38;11.62;77.57
70830;SHT30;58451;51.550;7.208;2022-09-23T07:04:05;11.86;77.35
70830;SHT30;58451;51.550;7.208;2022-09-23T07:06:33;12.10;77.08
70830;SHT30;58451;51.550;7.208;2022-09-23T07:09:00;12.38;76.83
70830;SHT30;58451;51.550;7.208;2022-09-23T07:11:31;12.60;76.58
70830;SHT30;58451;51.550;7.208;2022-09-23T07:14:00;12.84;76.26
70830;SHT30;58451;51.550;7.208;2022-09-23T07:16:27;13.10;75.91
70830;SHT30;58451;51.550;7.208;2022-09-23T07:18:54;13.37;75.42
70830;SHT30;58451;51.550;7.208;2022-09-23T07:21:21;13.63;74.90
70830;SHT30;58451;51.550;7.208;2022-09-23T07:23:48;13.85;74.33
70830;SHT30;58451;51.550;7.208;2022-09-23T07:26:17;14.09;73.23
70830;SHT30;58451;51.550;7.208;2022-09-23T07:28:51;14.29;72.82
70830;SHT30;58451;51.550;7.208;2022-09-23T07:31:31;14.51;72.10
70830;SHT30;58451;51.550;7.208;2022-09-23T07:34:06;14.73;71.61
70830;SHT30;58451;51.550;7.208;2022-09-23T07:36:38;14.94;70.72
70830;SHT30;58451;51.550;7.208;2022-09-23T07:39:08;15.17;70.47
70830;SHT30;58451;51.550;7.208;2022-09-23T07:41:38;15.41;68.75
70830;SHT30;58451;51.550;7.208;2022-09-23T07:44:08;15.64;67.64
70830;SHT30;58451;51.550;7.208;2022-09-23T07:46:39;15.90;65.71
70830;SHT30;58451;51.550;7.208;2022-09-23T07:49:06;16.14;66.42
70830;SHT30;58451;51.550;7.208;2022-09-23T07:51:34;16.40;66.39
70830;SHT30;58451;51.550;7.208;2022-09-23T07:54:05;16.64;65.90
70830;SHT30;58451;51.550;7.208;2022-09-23T07:56:40;16.86;65.48
70830;SHT30;58451;51.550;7.208;2022-09-23T07:59:12;17.07;64.50
70830;SHT30;58451;51.550;7.208;2022-09-23T08:01:44;17.26;62.99
70830;SHT30;58451;51.550;7.208;2022-09-23T08:04:19;17.40;61.04
70830;SHT30;58451;51.550;7.208;2022-09-23T08:06:52;17.47;58.86
70830;SHT30;58451;51.550;7.208;2022-09-23T08:09:27;17.58;58.82
70830;SHT30;58451;51.550;7.208;2022-09-23T08:12:01;17.71;58.27
70830;SHT30;58451;51.550;7.208;2022-09-23T08:14:29;17.82;58.74
70830;SHT30;58451;51.550;7.208;2022-09-23T08:16:56;17.93;58.17
70830;SHT30;58451;51.550;7.208;2022-09-23T08:19:25;18.02;57.93
70830;SHT30;58451;51.550;7.208;2022-09-23T08:21:52;18.12;57.25
70830;SHT30;58451;51.550;7.208;2022-09-23T08:24:20;18.18;55.72
70830;SHT30;58451;51.550;7.208;2022-09-23T08:26:50;18.25;56.99
70830;SHT30;58451;51.550;7.208;2022-09-23T08:29:21;18.37;56.97
70830;SHT30;58451;51.550;7.208;2022-09-23T08:31:51;18.50;56.74
70830;SHT30;58451;51.550;7.208;2022-09-23T08:34:21;18.63;55.27
70830;SHT30;58451;51.550;7.208;2022-09-23T08:36:50;18.71;53.84
70830;SHT30;58451;51.550;7.208;2022-09-23T08:39:20;18.65;51.75
70830;SHT30;58451;51.550;7.208;2022-09-23T08:47:31;18.92;53.86
70830;SHT30;58451;51.550;7.208;2022-09-23T08:50:03;19.12;53.38
70830;SHT30;58451;51.550;7.208;2022-09-23T08:55:33;19.50;52.19
70830;SHT30;58451;51.550;7.208;2022-09-23T08:58:22;19.53;49.95
70830;SHT30;58451;51.550;7.208;2022-09-23T09:01:38;19.41;48.40
70830;SHT30;58451;51.550;7.208;2022-09-23T09:07:12;19.29;49.15
70830;SHT30;58451;51.550;7.208;2022-09-23T09:13:22;19.66;48.99
70830;SHT30;58451;51.550;7.208;2022-09-23T09:19:37;19.83;49.32
70830;SHT30;58451;51.550;7.208;2022-09-23T09:22:19;19.95;48.32
70830;SHT30;58451;51.550;7.208;2022-09-23T09:25:21;20.03;47.21
70830;SHT30;58451;51.550;7.208;2022-09-23T09:31:02;20.28;48.65
70830;SHT30;58451;51.550;7.208;2022-09-23T09:36:48;20.25;43.76
70830;SHT30;58451;51.550;7.208;2022-09-23T09:39:34;20.14;45.85
70830;SHT30;58451;51.550;7.208;2022-09-23T09:42:08;20.32;46.37
70830;SHT30;58451;51.550;7.208;2022-09-23T09:44:50;20.45;44.54
70830;SHT30;58451;51.550;7.208;2022-09-23T09:56:00;20.85;44.45
70830;SHT30;58451;51.550;7.208;2022-09-23T09:58:46;21.04;42.88
70830;SHT30;58451;51.550;7.208;2022-09-23T10:01:37;21.14;43.55
70830;SHT30;58451;51.550;7.208;2022-09-23T10:04:04;21.13;41.49
70830;SHT30;58451;51.550;7.208;2022-09-23T10:09:47;21.38;42.90
70830;SHT30;58451;51.550;7.208;2022-09-23T10:12:17;21.53;42.71
70830;SHT30;58451;51.550;7.208;2022-09-23T10:14:48;21.58;42.63
70830;SHT30;58451;51.550;7.208;2022-09-23T10:20:00;21.67;41.65
70830;SHT30;58451;51.550;7.208;2022-09-23T10:22:37;21.64;41.30
70830;SHT30;58451;51.550;7.208;2022-09-23T10:25:14;21.54;40.49
70830;SHT30;58451;51.550;7.208;2022-09-23T10:27:50;21.58;41.81
70830;SHT30;58451;51.550;7.208;2022-09-23T10:30:18;21.68;40.62
70830;SHT30;58451;51.550;7.208;2022-09-23T10:32:53;21.68;41.06
70830;SHT30;58451;51.550;7.208;2022-09-23T10:35:26;21.87;41.39
70830;SHT30;58451;51.550;7.208;2022-09-23T10:37:57;22.07;41.03
70830;SHT30;58451;51.550;7.208;2022-09-23T10:40:31;21.95;38.72
70830;SHT30;58451;51.550;7.208;2022-09-23T10:46:27;21.83;40.41
70830;SHT30;58451;51.550;7.208;2022-09-23T10:52:18;22.22;39.98
70830;SHT30;58451;51.550;7.208;2022-09-23T10:55:37;22.10;39.21
70830;SHT30;58451;51.550;7.208;2022-09-23T10:58:30;22.18;40.51
70830;SHT30;58451;51.550;7.208;2022-09-23T11:10:34;22.35;39.39
70830;SHT30;58451;51.550;7.208;2022-09-23T11:16:56;21.83;37.44
70830;SHT30;58451;51.550;7.208;2022-09-23T11:22:28;21.69;38.59
70830;SHT30;58451;51.550;7.208;2022-09-23T11:25:34;21.79;38.98
70830;SHT30;58451;51.550;7.208;2022-09-23T11:37:23;21.75;38.91
70830;SHT30;58451;51.550;7.208;2022-09-23T11:40:00;22.07;39.27
70830;SHT30;58451;51.550;7.208;2022-09-23T11:42:56;22.34;37.81
70830;SHT30;58451;51.550;7.208;2022-09-23T11:45:26;22.37;37.38
70830;SHT30;58451;51.550;7.208;2022-09-23T11:48:10;22.42;37.58
70830;SHT30;58451;51.550;7.208;2022-09-23T11:51:09;22.53;36.94
70830;SHT30;58451;51.550;7.208;2022-09-23T11:54:19;22.52;36.20
70830;SHT30;58451;51.550;7.208;2022-09-23T11:57:09;22.51;37.88
70830;SHT30;58451;51.550;7.208;2022-09-23T12:06:16;23.18;36.52
70830;SHT30;58451;51.550;7.208;2022-09-23T12:09:02;23.09;34.87
70830;SHT30;58451;51.550;7.208;2022-09-23T12:12:12;22.96;34.93
70830;SHT30;58451;51.550;7.208;2022-09-23T12:30:02;23.85;32.99
70830;SHT30;58451;51.550;7.208;2022-09-23T12:32:44;23.67;33.54
70830;SHT30;58451;51.550;7.208;2022-09-23T12:37:50;23.92;33.99
70830;SHT30;58451;51.550;7.208;2022-09-23T12:40:21;23.95;32.65
70830;SHT30;58451;51.550;7.208;2022-09-23T12:42:56;24.03;34.41
70830;SHT30;58451;51.550;7.208;2022-09-23T12:50:48;23.61;32.81
70830;SHT30;58451;51.550;7.208;2022-09-23T12:56:14;22.99;33.53
70830;SHT30;58451;51.550;7.208;2022-09-23T13:01:18;22.81;33.69
70830;SHT30;58451;51.550;7.208;2022-09-23T13:03:56;22.71;33.65
70830;SHT30;58451;51.550;7.208;2022-09-23T13:09:45;22.48;33.02
70830;SHT30;58451;51.550;7.208;2022-09-23T13:12:18;22.22;33.30
70830;SHT30;58451;51.550;7.208;2022-09-23T13:15:01;22.17;34.59
70830;SHT30;58451;51.550;7.208;2022-09-23T13:17:33;22.43;34.81
70830;SHT30;58451;51.550;7.208;2022-09-23T13:25:22;22.66;35.09
70830;SHT30;58451;51.550;7.208;2022-09-23T13:27:56;22.78;34.53
70830;SHT30;58451;51.550;7.208;2022-09-23T13:30:29;22.81;34.97
70830;SHT30;58451;51.550;7.208;2022-09-23T13:33:09;22.87;35.02
70830;SHT30;58451;51.550;7.208;2022-09-23T13:35:49;22.70;34.75
70830;SHT30;58451;51.550;7.208;2022-09-23T13:38:24;22.46;35.32
70830;SHT30;58451;51.550;7.208;2022-09-23T13:40:56;22.34;35.22
70830;SHT30;58451;51.550;7.208;2022-09-23T13:43:46;22.29;35.88
70830;SHT30;58451;51.550;7.208;2022-09-23T13:46:19;22.48;36.08
70830;SHT30;58451;51.550;7.208;2022-09-23T13:49:31;22.64;35.85
70830;SHT30;58451;51.550;7.208;2022-09-23T13:52:03;22.62;34.64
70830;SHT30;58451;51.550;7.208;2022-09-23T13:54:33;22.52;35.33
70830;SHT30;58451;51.550;7.208;2022-09-23T14:00:17;22.77;35.95
70830;SHT30;58451;51.550;7.208;2022-09-23T14:02:46;22.99;35.58
70830;SHT30;58451;51.550;7.208;2022-09-23T14:05:22;23.00;35.15
70830;SHT30;58451;51.550;7.208;2022-09-23T14:07:54;22.91;35.18
70830;SHT30;58451;51.550;7.208;2022-09-23T14:10:25;22.87;35.12
70830;SHT30;58451;51.550;7.208;2022-09-23T14:12:54;22.66;35.33
70830;SHT30;58451;51.550;7.208;2022-09-23T14:15:23;22.60;36.01
70830;SHT30;58451;51.550;7.208;2022-09-23T14:18:00;22.69;36.02
70830;SHT30;58451;51.550;7.208;2022-09-23T14:20:32;22.83;36.37
70830;SHT30;58451;51.550;7.208;2022-09-23T14:23:14;23.04;36.48
70830;SHT30;58451;51.550;7.208;2022-09-23T14:25:43;23.05;35.33
70830;SHT30;58451;51.550;7.208;2022-09-23T14:28:15;22.66;36.07
70830;SHT30;58451;51.550;7.208;2022-09-23T14:30:51;22.54;36.48
70830;SHT30;58451;51.550;7.208;2022-09-23T14:33:25;22.47;36.95
70830;SHT30;58451;51.550;7.208;2022-09-23T14:36:07;22.50;36.74
70830;SHT30;58451;51.550;7.208;2022-09-23T14:39:07;22.23;36.92
70830;SHT30;58451;51.550;7.208;2022-09-23T14:41:38;22.11;37.56
70830;SHT30;58451;51.550;7.208;2022-09-23T14:44:18;22.22;37.94
70830;SHT30;58451;51.550;7.208;2022-09-23T14:46:53;22.18;37.48
70830;SHT30;58451;51.550;7.208;2022-09-23T14:49:26;21.84;38.12
70830;SHT30;58451;51.550;7.208;2022-09-23T14:51:54;21.66;38.51
70830;SHT30;58451;51.550;7.208;2022-09-23T14:57:43;21.37;39.36
70830;SHT30;58451;51.550;7.208;2022-09-23T15:00:15;21.37;39.56
70830;SHT30;58451;51.550;7.208;2022-09-23T15:03:00;21.25;39.66
70830;SHT30;58451;51.550;7.208;2022-09-23T15:05:40;21.14;40.00
70830;SHT30;58451;51.550;7.208;2022-09-23T15:08:21;21.02;40.27
70830;SHT30;58451;51.550;7.208;2022-09-23T15:10:54;21.00;40.54
70830;SHT30;58451;51.550;7.208;2022-09-23T15:13:22;20.98;40.58
70830;SHT30;58451;51.550;7.208;2022-09-23T15:15:55;20.78;41.00
70830;SHT30;58451;51.550;7.208;2022-09-23T15:18:29;20.59;41.41
70830;SHT30;58451;51.550;7.208;2022-09-23T15:21:14;20.62;41.57
70830;SHT30;58451;51.550;7.208;2022-09-23T15:23:50;20.58;41.62
70830;SHT30;58451;51.550;7.208;2022-09-23T15:29:07;20.52;41.92
70830;SHT30;58451;51.550;7.208;2022-09-23T15:31:37;20.51;42.04
70830;SHT30;58451;51.550;7.208;2022-09-23T15:34:04;20.45;42.21
70830;SHT30;58451;51.550;7.208;2022-09-23T15:36:32;20.37;42.42
70830;SHT30;58451;51.550;7.208;2022-09-23T15:39:00;20.31;42.59
70830;SHT30;58451;51.550;7.208;2022-09-23T15:41:30;20.17;42.87
70830;SHT30;58451;51.550;7.208;2022-09-23T15:44:06;20.05;43.26
70830;SHT30;58451;51.550;7.208;2022-09-23T15:46:39;19.97;43.53
70830;SHT30;58451;51.550;7.208;2022-09-23T15:49:31;19.88;43.70
70830;SHT30;58451;51.550;7.208;2022-09-23T15:52:03;19.86;43.89
70830;SHT30;58451;51.550;7.208;2022-09-23T15:54:32;19.84;44.10
70830;SHT30;58451;51.550;7.208;2022-09-23T15:57:01;19.83;44.24
70830;SHT30;58451;51.550;7.208;2022-09-23T15:59:28;19.81;44.33
70830;SHT30;58451;51.550;7.208;2022-09-23T16:01:57;19.76;44.33
70830;SHT30;58451;51.550;7.208;2022-09-23T16:04:31;19.69;44.69
70830;SHT30;58451;51.550;7.208;2022-09-23T16:06:58;19.58;44.85
70830;SHT30;58451;51.550;7.208;2022-09-23T16:09:26;19.45;44.99
70830;SHT30;58451;51.550;7.208;2022-09-23T16:11:58;19.39;45.34
70830;SHT30;58451;51.550;7.208;2022-09-23T16:14:28;19.35;45.49
70830;SHT30;58451;51.550;7.208;2022-09-23T16:16:54;19.30;45.83
70830;SHT30;58451;51.550;7.208;2022-09-23T16:19:22;19.22;45.82
70830;SHT30;58451;51.550;7.208;2022-09-23T16:21:54;19.12;45.96
70830;SHT30;58451;51.550;7.208;2022-09-23T16:24:21;19.03;46.18
70830;SHT30;58451;51.550;7.208;2022-09-23T16:26:53;18.91;46.27
70830;SHT30;58451;51.550;7.208;2022-09-23T16:29:25;18.83;46.59
70830;SHT30;58451;51.550;7.208;2022-09-23T16:31:53;18.73;46.93
70830;SHT30;58451;51.550;7.208;2022-09-23T16:34:21;18.65;47.20
70830;SHT30;58451;51.550;7.208;2022-09-23T16:36:48;18.57;47.39
70830;SHT30;58451;51.550;7.208;2022-09-23T16:39:17;18.51;47.69
70830;SHT30;58451;51.550;7.208;2022-09-23T16:41:48;18.45;48.01
70830;SHT30;58451;51.550;7.208;2022-09-23T16:44:19;18.39;48.52
70830;SHT30;58451;51.550;7.208;2022-09-23T16:46:47;18.33;48.79
70830;SHT30;58451;51.550;7.208;2022-09-23T16:49:14;18.28;49.53
70830;SHT30;58451;51.550;7.208;2022-09-23T16:51:41;18.21;49.88
70830;SHT30;58451;51.550;7.208;2022-09-23T16:54:09;18.13;50.36
70830;SHT30;58451;51.550;7.208;2022-09-23T16:56:39;18.07;50.59
70830;SHT30;58451;51.550;7.208;2022-09-23T16:59:17;17.99;51.42
70830;SHT30;58451;51.550;7.208;2022-09-23T17:01:43;17.93;51.39
70830;SHT30;58451;51.550;7.208;2022-09-23T17:04:30;17.86;51.35
70830;SHT30;58451;51.550;7.208;2022-09-23T17:06:57;17.78;51.49
70830;SHT30;58451;51.550;7.208;2022-09-23T17:09:25;17.72;51.60
70830;SHT30;58451;51.550;7.208;2022-09-23T17:11:57;17.67;51.71
70830;SHT30;58451;51.550;7.208;2022-09-23T17:14:42;17.61;52.14
70830;SHT30;58451;51.550;7.208;2022-09-23T17:17:09;17.54;52.18
70830;SHT30;58451;51.550;7.208;2022-09-23T17:19:36;17.49;52.38
70830;SHT30;58451;51.550;7.208;2022-09-23T17:22:08;17.44;52.80
70830;SHT30;58451;51.550;7.208;2022-09-23T17:24:36;17.40;53.03
70830;SHT30;58451;51.550;7.208;2022-09-23T17:27:03;17.35;53.35
70830;SHT30;58451;51.550;7.208;2022-09-23T17:29:30;17.30;53.63
70830;SHT30;58451;51.550;7.208;2022-09-23T17:31:57;17.24;53.86
70830;SHT30;58451;51.550;7.208;2022-09-23T17:34:26;17.18;54.32
70830;SHT30;58451;51.550;7.208;2022-09-23T17:36:55;17.15;54.88
70830;SHT30;58451;51.550;7.208;2022-09-23T17:39:23;17.10;55.42
70830;SHT30;58451;51.550;7.208;2022-09-23T17:41:50;17.05;55.55
70830;SHT30;58451;51.550;7.208;2022-09-23T17:44:24;16.99;56.85
70830;SHT30;58451;51.550;7.208;2022-09-23T17:46:51;16.95;56.52
70830;SHT30;58451;51.550;7.208;2022-09-23T17:49:20;16.90;56.95
70830;SHT30;58451;51.550;7.208;2022-09-23T17:51:49;16.84;58.90
70830;SHT30;58451;51.550;7.208;2022-09-23T17:54:17;16.78;59.54
70830;SHT30;58451;51.550;7.208;2022-09-23T17:56:44;16.70;58.97
70830;SHT30;58451;51.550;7.208;2022-09-23T17:59:12;16.61;59.16
70830;SHT30;58451;51.550;7.208;2022-09-23T18:01:39;16.53;59.77
70830;SHT30;58451;51.550;7.208;2022-09-23T18:04:07;16.44;61.81
70830;SHT30;58451;51.550;7.208;2022-09-23T18:06:34;16.35;63.99
70830;SHT30;58451;51.550;7.208;2022-09-23T18:09:04;16.25;64.01
70830;SHT30;58451;51.550;7.208;2022-09-23T18:11:34;16.17;64.76
70830;SHT30;58451;51.550;7.208;2022-09-23T18:14:05;16.09;64.35
70830;SHT30;58451;51.550;7.208;2022-09-23T18:16:37;16.04;64.21
70830;SHT30;58451;51.550;7.208;2022-09-23T18:19:09;15.99;63.97
70830;SHT30;58451;51.550;7.208;2022-09-23T18:21:41;15.96;63.87
70830;SHT30;58451;51.550;7.208;2022-09-23T18:24:14;15.93;64.49
70830;SHT30;58451;51.550;7.208;2022-09-23T18:26:58;15.91;64.79
70830;SHT30;58451;51.550;7.208;2022-09-23T18:29:26;15.87;64.24
70830;SHT30;58451;51.550;7.208;2022-09-23T18:31:55;15.85;64.06
70830;SHT30;58451;51.550;7.208;2022-09-23T18:34:22;15.82;64.23
70830;SHT30;58451;51.550;7.208;2022-09-23T18:36:50;15.79;64.29
70830;SHT30;58451;51.550;7.208;2022-09-23T18:39:22;15.77;64.14
70830;SHT30;58451;51.550;7.208;2022-09-23T18:41:49;15.76;63.97
70830;SHT30;58451;51.550;7.208;2022-09-23T18:44:16;15.74;63.78
70830;SHT30;58451;51.550;7.208;2022-09-23T18:46:43;15.73;63.56
70830;SHT30;58451;51.550;7.208;2022-09-23T18:49:18;15.70;63.32
70830;SHT30;58451;51.550;7.208;2022-09-23T18:52:20;15.67;63.12
70830;SHT30;58451;51.550;7.208;2022-09-23T18:54:47;15.65;62.97
70830;SHT30;58451;51.550;7.208;2022-09-23T18:57:20;15.62;62.83
70830;SHT30;58451;51.550;7.208;2022-09-23T18:59:47;15.59;62.68
70830;SHT30;58451;51.550;7.208;2022-09-23T19:02:13;15.57;62.55
70830;SHT30;58451;51.550;7.208;2022-09-23T19:04:44;15.56;62.36
70830;SHT30;58451;51.550;7.208;2022-09-23T19:07:11;15.53;62.28
70830;SHT30;58451;51.550;7.208;2022-09-23T19:09:38;15.52;62.10
70830;SHT30;58451;51.550;7.208;2022-09-23T19:12:09;15.52;61.90
70830;SHT30;58451;51.550;7.208;2022-09-23T19:14:36;15.51;61.86